Latest Weather Observations for Centre Island

IDD60801

Issued at 5:01 pm CST Wednesday 27 July 2016 (issued every 30 minutes, with the page automatically refreshed every 10 minutes)

About weather observations | Map of weather stations | Latest weather observations for NT | Other Formats
Station Details ID: 014703 Name: CENTRE ISLAND Lat: -15.74 Lon: 136.82 Height: 12.2 m
Data from the previous 72 hours. | See also: Recent months at Centre Island
Date/Time
CST
Temp
°C
App
Temp
°C
Dew
Point
°C
Rel
Hum
%
Delta-T
°C
Wind Press
QNH
hPa
Press
MSL
hPa
Rain since
9am
mm
Dir  Spd
km/h
Gust
km/h
Spd
kts
Gust
kts
27/05:00pm 25.2 21.3 14.3 50 6.5 E 28 32 15 17 1015.0 1015.0 0.0
27/04:30pm 26.0 23.4 14.8 50 6.7 E 22 28 12 15 1014.7 1014.7 0.0
27/04:00pm 26.6 24.3 14.7 48 7.1 ENE 20 26 11 14 1014.7 1014.7 0.0
27/03:30pm 26.9 24.1 14.3 46 7.5 ENE 22 26 12 14 1014.7 1014.7 0.0
27/03:00pm 26.7 25.3 14.5 47 7.3 E 15 19 8 10 1014.7 1014.7 0.0
27/02:30pm 27.4 25.7 14.8 46 7.6 E 17 24 9 13 1014.8 1014.8 0.0
27/02:00pm 27.4 25.5 15.1 47 7.5 ESE 19 24 10 13 1015.2 1015.2 0.0
27/01:30pm 27.2 24.4 13.2 42 8.2 ESE 20 26 11 14 1015.5 1015.5 0.0
27/01:00pm 26.5 23.2 12.9 43 7.9 ESE 22 28 12 15 1015.9 1015.9 0.0
27/12:30pm 26.2 22.8 12.6 43 7.9 ESE 22 28 12 15 1016.4 1016.4 0.0
27/12:00pm 25.5 21.2 12.0 43 7.7 ESE 26 30 14 16 1016.8 1016.8 0.0
27/11:30am 25.2 20.5 13.1 47 7.0 ESE 30 32 16 17 1017.1 1017.1 0.0
27/11:00am 25.4 21.5 13.3 47 7.1 ESE 26 33 14 18 1017.5 1017.5 0.0
27/10:30am 24.8 19.8 11.0 42 7.7 ESE 28 33 15 18 1017.7 1017.7 0.0
27/10:00am 24.3 18.2 9.8 40 7.9 SE 32 37 17 20 1017.8 1017.8 0.0
27/09:30am 23.3 16.2 8.2 38 8.0 SE 35 43 19 23 1017.8 1017.8 0.0
27/09:00am 22.4 15.3 8.1 40 7.5 SE 35 43 19 23 1017.6 1017.6 0.0
27/08:30am 21.7 14.8 8.9 44 6.8 SE 35 44 19 24 1017.4 1017.4 0.0
27/08:00am 21.2 14.4 9.1 46 6.4 SSE 35 41 19 22 1017.1 1017.1 0.0
27/07:30am 21.3 14.6 11.1 52 5.6 SE 37 43 20 23 1016.7 1016.7 0.0
27/07:00am 21.0 14.3 9.6 48 6.1 SSE 35 43 19 23 1016.3 1016.3 0.0
27/06:30am 21.2 13.8 9.8 48 6.1 SSE 39 44 21 24 1015.9 1015.9 0.0
27/06:00am 21.3 14.3 9.9 48 6.1 SSE 37 43 20 23 1015.6 1015.6 0.0
27/05:30am 21.5 14.6 10.3 49 6.1 SSE 37 43 20 23 1015.4 1015.4 0.0
27/05:00am 21.5 15.2 9.7 47 6.4 SSE 33 41 18 22 1015.3 1015.3 0.0
27/04:30am 21.7 14.9 9.3 45 6.6 SSE 35 43 19 23 1015.1 1015.1 0.0
27/04:00am 21.7 15.9 11.4 52 5.7 SSE 33 43 18 23 1015.0 1015.0 0.0
27/03:30am 21.9 15.6 11.0 50 6.0 SSE 35 43 19 23 1014.9 1014.9 0.0
27/03:00am 22.2 16.7 12.5 54 5.5 SSE 33 41 18 22 1015.0 1015.0 0.0
27/02:30am 22.2 16.9 14.1 60 4.7 SSE 35 41 19 22 1015.0 1015.0 0.0
27/02:00am 22.5 19.4 16.5 69 3.7 SSE 28 32 15 17 1015.3 1015.3 0.0
27/01:30am 22.2 19.2 16.9 72 3.2 SSE 28 32 15 17 1015.6 1015.6 0.0
27/01:00am 21.4 17.7 17.4 78 2.5 S 33 41 18 22 1015.9 1015.9 0.0
27/12:45am 21.4 20.4 18.8 85 1.6 SSE 22 43 12 23 1015.8 1015.8 0.0
27/12:30am 21.8 22.4 19.5 87 1.5 SE 15 17 8 9 1015.4 1015.4 0.0
27/12:00am 22.3 22.9 20.2 88 1.4 SE 17 19 9 10 1015.4 1015.4 0.0
 
Date/Time
CST
Temp
°C
App
Temp
°C
Dew
Point
°C
Rel
Hum
%
Delta-T
°C
Wind Press
QNH
hPa
Press
MSL
hPa
Rain since
9am
mm
Dir  Spd
km/h
Gust
km/h
Spd
kts
Gust
kts
26/11:30pm 21.9 23.3 19.6 87 1.5 SE 11 13 6 7 1015.5 1015.5 0.0
26/11:00pm 21.3 23.0 18.5 84 1.8 ESE 7 7 4 4 1015.4 1015.4 0.0
26/10:30pm 21.2 22.8 18.2 83 1.9 ENE 7 9 4 5 1015.4 1015.4 0.0
26/10:00pm 21.2 24.0 18.0 82 2.0 CALM 0 0 0 0 1015.3 1015.3 0.0
26/09:30pm 21.9 23.4 18.1 79 2.4 ENE 7 9 4 5 1015.2 1015.2 0.0
26/09:00pm 22.1 22.8 17.9 77 2.6 ENE 11 15 6 8 1015.1 1015.1 0.0
26/08:30pm 21.7 23.2 16.6 73 3.1 NE 4 7 2 4 1015.0 1015.0 0.0
26/08:00pm 22.5 22.9 17.2 72 3.3 ENE 11 13 6 7 1014.7 1014.7 0.0
26/07:30pm 22.3 22.8 16.6 70 3.5 ENE 9 11 5 6 1014.3 1014.3 0.0
26/07:00pm 22.9 23.0 16.4 67 4.0 NE 11 15 6 8 1013.9 1013.9 0.0
26/06:30pm 23.1 23.2 16.4 66 4.1 ENE 11 15 6 8 1013.5 1013.5 0.0
26/06:00pm 23.8 24.1 17.1 66 4.1 NE 11 15 6 8 1013.2 1013.2 0.0
26/05:30pm 24.7 24.2 16.9 62 4.8 ENE 15 19 8 10 1013.1 1013.1 0.0
26/05:00pm 25.2 24.1 16.4 58 5.4 NE 17 22 9 12 1012.9 1012.9 0.0
26/04:30pm 26.0 24.9 17.4 59 5.4 NE 19 24 10 13 1012.7 1012.7 0.0
26/04:00pm 27.1 26.5 17.6 56 6.0 NE 17 20 9 11 1012.7 1012.7 0.0
26/03:30pm 27.6 26.4 16.2 49 7.0 ENE 17 20 9 11 1012.8 1012.8 0.0
26/03:00pm 27.6 26.1 15.3 47 7.5 ENE 17 22 9 12 1013.1 1013.1 0.0
26/02:30pm 27.7 26.5 16.0 49 7.2 ENE 17 24 9 13 1013.4 1013.4 0.0
26/02:00pm 27.6 25.2 14.3 44 8.0 ENE 20 24 11 13 1013.7 1013.7 0.0
26/01:30pm 28.3 25.9 14.5 43 8.3 ENE 20 28 11 15 1014.1 1014.1 0.0
26/01:00pm 27.8 24.7 13.3 40 8.6 ENE 22 28 12 15 1014.5 1014.5 0.0
26/12:30pm 27.1 23.5 13.1 42 8.2 E 24 32 13 17 1015.0 1015.0 0.0
26/12:00pm 26.6 22.2 13.0 43 7.9 E 28 33 15 18 1015.3 1015.3 0.0
26/11:30am 25.8 20.6 13.3 46 7.3 ESE 33 39 18 21 1015.7 1015.7 0.0
26/11:00am 24.9 18.9 12.2 45 7.3 ESE 35 41 19 22 1016.0 1016.0 0.0
26/10:30am 24.4 18.2 12.7 48 6.7 ESE 37 44 20 24 1016.3 1016.3 0.0
26/10:00am 23.8 16.2 11.8 47 6.8 ESE 43 50 23 27 1016.4 1016.4 0.0
26/09:30am 23.6 18.3 11.3 46 6.9 SE 30 33 16 18 1016.7 1016.7 0.0
26/09:00am 22.9 17.4 10.7 46 6.7 SE 30 33 16 18 1016.5 1016.5 0.0
26/08:30am 22.6 17.0 11.4 49 6.2 SE 32 37 17 20 1016.2 1016.2 0.0
26/08:00am 22.3 16.2 11.7 51 5.9 SE 35 43 19 23 1015.9 1015.9 0.0
26/07:30am 22.2 14.3 10.7 48 6.3 SE 43 48 23 26 1015.5 1015.5 0.0
26/07:00am 22.1 15.0 12.1 53 5.6 SE 41 46 22 25 1015.3 1015.3 0.0
26/06:30am 22.3 15.0 11.7 51 5.9 SE 41 48 22 26 1015.0 1015.0 0.0
26/06:00am 22.3 15.8 11.7 51 5.9 SE 37 44 20 24 1014.8 1014.8 0.0
26/05:30am 22.3 15.3 11.4 50 6.1 SE 39 46 21 25 1014.5 1014.5 0.0
26/05:00am 22.6 15.7 11.7 50 6.1 SE 39 46 21 25 1014.3 1014.3 0.0
26/04:30am 22.9 15.6 11.6 49 6.3 SE 41 48 22 26 1014.2 1014.2 0.0
26/04:00am 22.9 17.8 14.7 60 4.9 SE 35 41 19 22 1014.0 1014.0 0.0
26/03:30am 23.1 17.3 13.8 55 5.4 ESE 37 43 20 23 1013.8 1013.8 0.0
26/03:00am 23.5 17.3 13.9 55 5.6 ESE 39 48 21 26 1013.7 1013.7 0.0
26/02:56am 23.4 17.8 14.4 57 5.3 ESE 37 48 20 26 1013.7 1013.7 0.0
26/02:30am 23.0 21.0 17.5 71 3.4 ESE 24 30 13 16 1013.8 1013.8 0.0
26/02:00am 22.8 21.2 17.5 72 3.3 ESE 22 24 12 13 1013.9 1013.9 0.0
26/01:30am 22.9 21.5 18.0 74 3.1 ESE 22 30 12 16 1014.1 1014.1 0.0
26/01:00am 22.6 22.2 18.8 79 2.4 ESE 19 20 10 11 1014.2 1014.2 0.0
26/12:30am 22.9 22.8 19.5 81 2.2 ESE 19 20 10 11 1014.4 1014.4 0.0
26/12:00am 22.8 22.6 19.4 81 2.2 ESE 19 24 10 13 1014.4 1014.4 0.0
 
Date/Time
CST
Temp
°C
App
Temp
°C
Dew
Point
°C
Rel
Hum
%
Delta-T
°C
Wind Press
QNH
hPa
Press
MSL
hPa
Rain since
9am
mm
Dir  Spd
km/h
Gust
km/h
Spd
kts
Gust
kts
25/11:30pm 22.8 22.8 19.0 79 2.4 E 17 20 9 11 1014.3 1014.3 0.0
25/11:00pm 23.0 22.5 19.0 78 2.5 E 20 24 11 13 1014.3 1014.3 0.0
25/10:30pm 23.2 21.8 18.7 76 2.8 E 24 28 13 15 1014.5 1014.5 0.0
25/10:00pm 23.3 21.7 18.4 74 3.1 E 24 28 13 15 1014.5 1014.5 0.0
25/09:30pm 23.5 21.8 18.2 72 3.3 E 24 28 13 15 1014.5 1014.5 0.0
25/09:00pm 23.6 21.6 18.3 72 3.3 E 26 32 14 17 1014.3 1014.3 0.0
25/08:30pm 23.7 21.1 17.9 70 3.6 E 28 33 15 18 1014.1 1014.1 0.0
25/08:00pm 23.6 20.9 17.6 69 3.7 E 28 32 15 17 1013.8 1013.8 0.0
25/07:30pm 23.7 21.1 17.9 70 3.6 E 28 32 15 17 1013.5 1013.5 0.0
25/07:00pm 23.7 21.5 17.9 70 3.6 E 26 32 14 17 1013.4 1013.4 0.0
25/06:30pm 23.8 20.3 17.5 68 3.9 E 32 39 17 21 1013.0 1013.0 0.0
25/06:00pm 24.3 20.7 17.3 65 4.3 E 32 35 17 19 1012.9 1012.9 0.0
25/05:30pm 25.3 22.1 17.2 61 5.0 E 30 37 16 20 1012.7 1012.7 0.0
25/05:00pm 26.1 21.9 16.1 54 6.1 E 33 39 18 21 1012.5 1012.5 0.0
25/04:30pm 26.7 21.5 14.5 47 7.3 E 35 43 19 23 1012.5 1012.5 0.0
25/04:00pm 27.1 21.7 13.8 44 7.9 E 35 46 19 25 1012.7 1012.7 0.0
25/03:30pm 27.3 21.5 14.0 44 7.9 ESE 37 44 20 24 1012.8 1012.8 0.0
25/03:00pm 27.5 21.3 13.8 43 8.1 ESE 39 46 21 25 1012.8 1012.8 0.0
25/02:30pm 28.1 23.7 15.1 45 7.9 E 32 37 17 20 1013.0 1013.0 0.0
25/02:00pm 28.0 22.5 13.5 41 8.6 E 35 46 19 25 1013.3 1013.3 0.0
25/01:30pm 28.1 24.7 15.7 46 7.6 E 28 35 15 19 1013.9 1013.9 0.0
25/01:00pm 27.8 25.1 15.5 47 7.5 E 24 30 13 16 1014.5 1014.5 0.0
25/12:30pm 27.7 24.5 15.4 47 7.5 E 26 32 14 17 1014.8 1014.8 0.0
25/12:00pm 26.9 22.8 15.0 48 7.2 E 30 37 16 20 1015.1 1015.1 0.0
25/11:30am 26.2 21.7 15.0 50 6.7 E 32 39 17 21 1015.6 1015.6 0.0
25/11:00am 25.6 20.2 15.0 52 6.4 ESE 37 44 20 24 1015.7 1015.7 0.0
25/10:30am 25.1 18.0 13.9 49 6.6 ESE 44 54 24 29 1015.9 1015.9 0.0
25/10:00am 24.8 18.3 14.0 51 6.4 ESE 41 48 22 26 1015.8 1015.8 0.0
25/09:30am 24.8 18.3 15.1 54 5.8 ESE 43 54 23 29 1015.9 1015.9 0.0
25/09:00am 24.5 19.2 15.4 57 5.5 ESE 37 48 20 26 1015.9 1015.9 0.0
25/08:30am 23.9 19.1 15.7 60 4.9 ESE 35 44 19 24 1015.5 1015.5 0.0
25/08:00am 22.8 18.8 16.1 66 4.1 SE 32 37 17 20 1015.2 1015.2 0.0
25/07:30am 22.5 19.4 17.4 73 3.1 SE 30 33 16 18 1014.9 1014.9 0.0
25/07:00am 22.1 19.4 17.5 75 2.8 SSE 28 33 15 18 1014.6 1014.6 0.0
25/06:30am 21.8 20.2 17.4 76 2.7 SSE 22 26 12 14 1014.1 1014.1 0.0
25/06:00am 21.4 20.8 17.6 79 2.3 S 17 20 9 11 1013.8 1013.8 0.0
25/05:30am 22.0 22.9 19.2 84 1.8 SSE 13 17 7 9 1013.5 1013.5 0.0
25/05:00am 21.4 22.6 18.2 82 2.0 SSE 9 11 5 6 1013.1 1013.1 0.0
25/04:30am 21.5 22.0 18.3 82 2.0 S 13 17 7 9 1012.9 1012.9 0.0
25/04:00am 21.6 22.2 18.6 83 1.9 S 13 20 7 11 1012.8 1012.8 0.0
25/03:30am 22.0 22.9 19.2 84 1.8 S 13 19 7 10 1012.9 1012.9 0.0
25/03:00am 21.9 22.4 19.3 85 1.7 SSE 15 19 8 10 1013.0 1013.0 0.0
25/02:30am 21.9 22.3 19.8 88 1.3 SSE 17 20 9 11 1013.1 1013.1 0.0
25/02:00am 21.9 22.5 20.2 90 1.1 SE 17 19 9 10 1013.4 1013.4 0.0
25/01:30am 22.0 23.1 20.5 91 1.0 SSE 15 17 8 9 1013.6 1013.6 0.0
25/01:00am 22.1 23.3 20.7 92 0.9 SSE 15 17 8 9 1013.8 1013.8 0.0
25/12:30am 22.3 23.6 20.9 92 0.9 SSE 15 19 8 10 1013.8 1013.8 0.0
25/12:00am 22.4 23.4 21.0 92 0.9 SSE 17 19 9 10 1013.8 1013.8 0.0
 
Date/Time
CST
Temp
°C
App
Temp
°C
Dew
Point
°C
Rel
Hum
%
Delta-T
°C
Wind Press
QNH
hPa
Press
MSL
hPa
Rain since
9am
mm
Dir  Spd
km/h
Gust
km/h
Spd
kts
Gust
kts
24/11:30pm 22.8 24.8 21.6 93 0.8 SSE 13 17 7 9 1013.7 1013.7 0.0
24/11:00pm 22.6 25.3 21.4 93 0.8 S 9 9 5 5 1014.0 1014.0 0.0
24/10:30pm 22.3 25.2 21.1 93 0.8 NW 7 9 4 5 1014.1 1014.1 0.0
24/10:00pm 21.7 24.9 19.8 89 1.2 N 2 7 1 4 1013.9 1013.9 0.0
24/09:30pm 21.9 24.8 19.8 88 1.3 N 4 6 2 3 1013.7 1013.7 0.0
24/09:00pm 22.4 25.2 20.5 89 1.2 N 6 7 3 4 1013.7 1013.7 0.0
24/08:30pm 22.8 25.6 20.9 89 1.2 NNE 7 9 4 5 1013.7 1013.7 0.0
24/08:00pm 22.9 25.6 20.6 87 1.5 N 7 9 4 5 1013.4 1013.4 0.0
24/07:30pm 23.3 25.5 20.4 84 1.9 NNE 9 15 5 8 1013.0 1013.0 0.0
24/07:00pm 23.5 25.2 20.2 82 2.1 NNE 11 13 6 7 1012.9 1012.9 0.0
24/06:30pm 23.7 24.6 20.0 80 2.4 NNE 15 17 8 9 1012.5 1012.5 0.0
24/06:00pm 24.2 25.8 19.9 77 2.8 NNE 11 15 6 8 1012.4 1012.4 0.0
24/05:30pm 25.2 26.3 19.6 71 3.6 NE 13 17 7 9 1012.1 1012.1 0.0

Other Formats:

Comma delimited format used in spreadsheet applications
http://www.bom.gov.au/fwo/IDD60801/IDD60801.94248.axf

JavaScript Object Notation format (JSON) in row-major order
http://www.bom.gov.au/fwo/IDD60801/IDD60801.94248.json